Time;durP1;ratioP1;P1;durP2;ratioP2;P2;SDS_P1;SDS_P2;PMS_P1;PMS_P2;Temp;Humidity;BMP_temperature;BMP_pressure;BME280_temperature;BME280_humidity;BME280_pressure;Samples;Min_cycle;Max_cycle;Signal;HPM_P1;HPM_P2
2023/05/27 00:01:28;;;;;;;7.07;2.90;;;;;;;20.85;40.21;102828.66;5021418;28;20380;-72
2023/05/27 00:03:53;;;;;;;10.18;2.72;;;;;;;20.89;40.07;102834.66;5023576;28;20262;-71
2023/05/27 00:06:19;;;;;;;9.57;3.03;;;;;;;20.86;39.88;102827.72;5013878;28;20063;-71
2023/05/27 00:08:44;;;;;;;7.20;3.00;;;;;;;20.87;40.25;102833.88;5008339;28;20037;-71
2023/05/27 00:11:10;;;;;;;10.73;3.08;;;;;;;20.84;40.07;102827.81;5022248;28;20441;-71
2023/05/27 00:13:35;;;;;;;7.75;3.28;;;;;;;20.85;39.93;102826.00;5024672;28;20037;-71
2023/05/27 00:16:01;;;;;;;6.82;2.70;;;;;;;20.85;39.88;102823.38;5024147;28;20136;-71
2023/05/27 00:18:26;;;;;;;7.60;2.95;;;;;;;20.84;39.65;102829.63;5006648;28;20120;-71
2023/05/27 00:20:51;;;;;;;8.10;3.20;;;;;;;20.81;39.92;102822.72;5014767;28;20425;-72
2023/05/27 00:23:17;;;;;;;6.95;2.85;;;;;;;20.83;39.67;102830.56;5013295;28;20930;-72
2023/05/27 00:25:42;;;;;;;9.48;2.90;;;;;;;20.84;39.73;102829.63;5023148;28;20120;-71
2023/05/27 00:28:07;;;;;;;10.60;3.22;;;;;;;20.81;39.73;102822.72;5017809;28;20470;-72
2023/05/27 00:30:33;;;;;;;8.07;3.10;;;;;;;20.80;39.67;102822.81;5015899;28;20482;-70
2023/05/27 00:32:58;;;;;;;7.05;2.88;;;;;;;20.79;39.82;102821.09;5018006;28;20075;-71
2023/05/27 00:35:23;;;;;;;6.18;2.78;;;;;;;20.81;39.61;102820.06;5016305;28;20132;-70
2023/05/27 00:37:49;;;;;;;5.90;2.50;;;;;;;20.79;39.77;102818.44;5013466;28;20029;-72
2023/05/27 00:40:17;;;;;;;8.55;2.78;;;;;;;20.76;39.67;102810.69;5016353;28;20047;-71
2023/05/27 00:42:42;;;;;;;8.02;2.80;;;;;;;20.79;39.62;102815.78;5020182;28;20086;-71
2023/05/27 00:45:08;;;;;;;7.77;3.37;;;;;;;20.75;39.45;102815.13;5017081;28;20029;-72
2023/05/27 00:47:34;;;;;;;7.40;2.70;;;;;;;20.78;39.31;102820.25;5015379;28;20291;-72
2023/05/27 00:50:00;;;;;;;6.25;2.78;;;;;;;20.74;39.30;102818.72;5013085;28;20030;-72
2023/05/27 00:52:26;;;;;;;6.72;2.55;;;;;;;20.76;39.45;102821.28;5010097;28;20589;-72
2023/05/27 00:54:53;;;;;;;8.80;2.80;;;;;;;20.75;39.41;102819.59;5017747;28;20554;-72
2023/05/27 00:57:19;;;;;;;6.82;2.80;;;;;;;20.75;39.50;102814.28;5011476;28;20483;-72
2023/05/27 00:59:45;;;;;;;7.60;2.83;;;;;;;20.73;39.56;102810.88;5012105;28;20043;-71
2023/05/27 01:02:10;;;;;;;7.72;3.25;;;;;;;20.73;39.42;102811.75;5010238;28;20068;-72
2023/05/27 01:04:36;;;;;;;6.13;2.50;;;;;;;20.72;39.36;102806.53;5013296;28;20038;-71
2023/05/27 01:07:22;;;;;;;7.65;2.58;;;;;;;20.73;39.49;102808.22;5015636;28;20029;-72
2023/05/27 01:10:14;;;;;;;7.15;2.80;;;;;;;20.71;39.55;102803.03;5011818;28;20042;-72
2023/05/27 01:12:39;;;;;;;9.57;3.08;;;;;;;20.71;39.23;102805.69;5013529;28;20473;-72
2023/05/27 01:15:07;;;;;;;7.53;2.67;;;;;;;20.70;39.46;102805.78;5012814;28;20034;-71
2023/05/27 01:17:37;;;;;;;6.93;2.60;;;;;;;20.69;39.14;102801.41;5010697;28;20030;-71
2023/05/27 01:20:05;;;;;;;8.20;2.75;;;;;;;20.70;39.45;102805.78;5018856;28;20044;-72
2023/05/27 01:22:31;;;;;;;6.20;2.55;;;;;;;20.67;39.68;102805.97;5013007;28;20116;-71
2023/05/27 01:24:57;;;;;;;6.88;2.55;;;;;;;20.68;39.51;102799.69;5016953;28;20098;-73
2023/05/27 01:27:24;;;;;;;6.63;2.30;;;;;;;20.68;39.44;102799.69;5013904;28;20037;-72
2023/05/27 01:29:50;;;;;;;6.65;2.83;;;;;;;20.64;39.24;102788.44;5013228;28;20030;-73
2023/05/27 01:32:43;;;;;;;5.75;2.63;;;;;;;20.61;39.42;102794.75;5011039;28;20034;-71
2023/05/27 01:35:17;;;;;;;7.68;2.58;;;;;;;20.65;39.37;102796.31;5016399;28;20037;-71
2023/05/27 01:37:44;;;;;;;8.15;2.97;;;;;;;20.66;39.19;102791.84;5014326;28;20041;-71
2023/05/27 01:40:12;;;;;;;6.18;2.42;;;;;;;20.63;39.05;102792.00;5014175;28;20493;-72
2023/05/27 01:42:40;;;;;;;5.50;2.50;;;;;;;20.62;39.19;102777.91;5011149;28;20033;-72
2023/05/27 01:45:07;;;;;;;8.15;2.78;;;;;;;20.62;39.27;102775.28;5013797;28;20052;-71
2023/05/27 01:47:32;;;;;;;7.32;3.25;;;;;;;20.61;39.33;102773.56;5007953;28;20116;-72
2023/05/27 01:49:57;;;;;;;6.85;2.50;;;;;;;20.60;39.35;102779.81;5011804;28;20470;-72
2023/05/27 01:52:23;;;;;;;9.15;2.97;;;;;;;20.64;39.11;102783.16;5014466;28;20034;-71
2023/05/27 01:54:48;;;;;;;8.52;3.00;;;;;;;20.60;39.15;102779.81;5011084;28;20087;-71
2023/05/27 01:57:13;;;;;;;8.18;2.72;;;;;;;20.58;39.04;102781.69;5026764;28;20454;-72
2023/05/27 01:59:39;;;;;;;6.15;2.67;;;;;;;20.62;39.18;102777.06;5014690;28;20040;-72
2023/05/27 02:02:05;;;;;;;7.20;2.67;;;;;;;20.57;38.98;102769.41;5015766;28;20125;-74
2023/05/27 02:04:30;;;;;;;8.32;3.00;;;;;;;20.61;39.17;102780.66;5014935;28;20436;-72
2023/05/27 02:06:55;;;;;;;7.63;2.55;;;;;;;20.60;39.00;102776.28;5005751;28;20493;-72
2023/05/27 02:09:21;;;;;;;7.25;2.90;;;;;;;20.57;38.86;102769.41;5008396;28;20030;-72
2023/05/27 02:11:46;;;;;;;8.10;2.78;;;;;;;20.58;38.87;102773.75;5019018;28;20033;-72
2023/05/27 02:14:12;;;;;;;7.50;2.70;;;;;;;20.58;39.04;102776.38;5007609;28;20570;-71
2023/05/27 02:16:39;;;;;;;8.32;2.55;;;;;;;20.57;38.83;102784.44;5013787;28;20291;-72
2023/05/27 02:19:04;;;;;;;8.55;2.83;;;;;;;20.56;39.08;102780.09;5016305;28;20145;-72
2023/05/27 02:21:31;;;;;;;6.60;2.75;;;;;;;20.56;38.89;102780.09;5011986;28;20137;-70
2023/05/27 02:23:57;;;;;;;7.53;2.67;;;;;;;20.55;39.02;102787.16;5012960;28;20207;-72
2023/05/27 02:26:22;;;;;;;5.32;2.42;;;;;;;20.53;39.12;102788.22;5014145;28;20136;-70
2023/05/27 02:28:47;;;;;;;6.93;2.50;;;;;;;20.55;38.91;102794.28;5005492;28;20037;-70
2023/05/27 02:31:13;;;;;;;8.15;2.55;;;;;;;20.54;38.81;102793.44;5003042;28;20038;-71
2023/05/27 02:33:38;;;;;;;7.05;2.72;;;;;;;20.54;38.77;102785.50;5009649;28;20466;-71
2023/05/27 02:36:04;;;;;;;7.85;2.75;;;;;;;20.52;39.04;102781.22;5010586;28;20160;-71
2023/05/27 02:38:29;;;;;;;5.50;2.35;;;;;;;20.51;39.15;102777.72;5020602;28;20116;-72
2023/05/27 02:40:54;;;;;;;6.78;2.30;;;;;;;20.53;38.76;102777.63;5007575;28;20037;-72
2023/05/27 02:43:20;;;;;;;6.97;2.50;;;;;;;20.52;39.02;102781.22;5015592;28;20037;-71
2023/05/27 02:45:45;;;;;;;6.18;2.50;;;;;;;20.52;38.84;102783.88;5004351;28;20043;-73
2023/05/27 02:48:11;;;;;;;6.47;2.58;;;;;;;20.52;38.88;102787.38;5016708;28;20040;-70
2023/05/27 02:50:36;;;;;;;8.50;3.55;;;;;;;20.51;39.06;102792.78;5003078;28;20038;-72
2023/05/27 02:53:01;;;;;;;6.78;2.50;;;;;;;20.48;38.72;102781.41;5002408;28;20041;-72
2023/05/27 02:55:26;;;;;;;8.75;3.10;;;;;;;20.50;38.96;102793.72;5002156;28;20038;-72
2023/05/27 02:57:52;;;;;;;7.93;2.85;;;;;;;20.48;39.08;102794.66;5004018;28;20479;-72
2023/05/27 03:00:17;;;;;;;9.27;2.90;;;;;;;20.47;38.96;102792.09;5029678;28;20042;-71
2023/05/27 03:02:43;;;;;;;7.28;2.33;;;;;;;20.46;38.81;102796.53;5004821;28;20271;-71
2023/05/27 03:05:08;;;;;;;6.97;2.50;;;;;;;20.44;38.91;102795.78;5002015;28;20485;-71
2023/05/27 03:07:33;;;;;;;6.07;2.60;;;;;;;20.47;38.93;102800.91;5004561;28;20069;-72
2023/05/27 03:09:59;;;;;;;7.18;2.60;;;;;;;20.42;38.87;102792.38;5004343;28;20052;-71
2023/05/27 03:12:24;;;;;;;7.28;2.70;;;;;;;20.46;38.60;102799.19;5006170;28;20040;-72
2023/05/27 03:14:50;;;;;;;6.55;2.53;;;;;;;20.45;38.93;102802.78;5007432;28;20101;-73
2023/05/27 03:17:15;;;;;;;8.82;3.13;;;;;;;20.43;39.06;102791.44;5008750;28;20045;-71
2023/05/27 03:19:41;;;;;;;6.75;2.70;;;;;;;20.42;38.92;102794.16;5015918;28;20567;-72
2023/05/27 03:22:07;;;;;;;7.78;3.03;;;;;;;20.44;38.80;102798.44;5007000;28;20040;-72
2023/05/27 03:24:33;;;;;;;8.73;2.70;;;;;;;20.42;38.73;102794.16;5012578;28;20044;-72
2023/05/27 03:26:59;;;;;;;6.88;2.80;;;;;;;20.43;38.89;102803.84;5013789;28;20025;-71
2023/05/27 03:29:24;;;;;;;8.15;3.00;;;;;;;20.40;38.73;102791.63;5014263;28;20042;-70
2023/05/27 03:31:50;;;;;;;6.78;3.03;;;;;;;20.41;38.87;102785.38;5014066;28;20552;-72
2023/05/27 03:34:15;;;;;;;6.63;2.40;;;;;;;20.41;38.77;102787.16;5003096;28;20044;-72
2023/05/27 03:36:43;;;;;;;6.85;2.55;;;;;;;20.40;38.84;102782.84;5011549;28;20105;-71
2023/05/27 03:39:08;;;;;;;5.47;2.22;;;;;;;20.41;38.80;102780.09;5014256;28;20123;-71
2023/05/27 03:41:34;;;;;;;8.63;2.70;;;;;;;20.35;38.72;102763.72;5024251;28;20164;-70
2023/05/27 03:43:59;;;;;;;7.30;2.65;;;;;;;20.40;38.69;102777.53;5007760;28;20027;-70
2023/05/27 03:46:25;;;;;;;9.00;2.33;;;;;;;20.40;38.62;102770.44;5014130;28;20121;-70
2023/05/27 03:48:50;;;;;;;6.97;2.47;;;;;;;20.39;38.75;102768.72;5007774;28;20041;-70
2023/05/27 03:51:15;;;;;;;7.28;2.80;;;;;;;20.38;38.69;102760.91;5014716;28;20190;-71
2023/05/27 03:53:41;;;;;;;8.80;2.67;;;;;;;20.36;38.76;102762.75;5017482;28;20030;-70
2023/05/27 03:56:06;;;;;;;7.75;2.92;;;;;;;20.36;38.84;102761.00;5027364;28;20048;-72
2023/05/27 03:58:31;;;;;;;6.13;2.40;;;;;;;20.37;38.83;102767.13;5027158;28;20040;-72
2023/05/27 04:00:57;;;;;;;8.65;2.50;;;;;;;20.38;38.86;102768.84;5017644;28;20033;-72
2023/05/27 04:03:22;;;;;;;6.10;2.40;;;;;;;20.37;38.73;102767.97;5027367;28;20033;-71
2023/05/27 04:05:47;;;;;;;7.95;2.30;;;;;;;20.38;38.68;102768.84;5027386;28;20317;-71
2023/05/27 04:08:13;;;;;;;7.77;2.67;;;;;;;20.35;38.61;102763.72;5014456;28;20091;-72
2023/05/27 04:10:39;;;;;;;6.97;2.42;;;;;;;20.37;38.92;102761.84;5022827;28;20288;-71
2023/05/27 04:13:04;;;;;;;6.72;2.50;;;;;;;20.33;38.87;102762.94;5014128;28;20577;-70
2023/05/27 04:15:30;;;;;;;6.73;2.30;;;;;;;20.35;38.61;102763.72;5014139;28;20521;-71
2023/05/27 04:17:55;;;;;;;7.13;2.53;;;;;;;20.35;38.84;102763.72;5021714;28;20286;-71
2023/05/27 04:20:21;;;;;;;6.95;2.45;;;;;;;20.35;38.94;102767.22;5024684;28;20042;-70
2023/05/27 04:22:47;;;;;;;7.10;2.47;;;;;;;20.32;38.78;102758.63;5021250;28;20393;-71
2023/05/27 04:25:12;;;;;;;8.75;3.05;;;;;;;20.33;38.88;102760.31;5013695;28;20038;-72
2023/05/27 04:27:37;;;;;;;7.15;2.60;;;;;;;20.26;38.72;102749.22;5023413;28;20045;-72
2023/05/27 04:30:05;;;;;;;5.88;2.35;;;;;;;20.30;38.77;102758.72;5019005;28;20061;-72
2023/05/27 04:32:37;;;;;;;10.25;2.83;;;;;;;20.32;38.73;102753.31;5019698;28;20076;-72
2023/05/27 04:35:09;;;;;;;7.63;2.63;;;;;;;20.32;38.69;102756.81;5017067;28;20395;-72
2023/05/27 04:37:40;;;;;;;7.50;2.50;;;;;;;20.33;38.72;102753.22;5018320;28;20038;-72
2023/05/27 04:40:07;;;;;;;7.90;2.92;;;;;;;20.30;38.78;102746.31;5015893;28;20920;-72
2023/05/27 04:42:36;;;;;;;7.13;2.58;;;;;;;20.30;38.66;102745.47;5016324;28;20333;-73
2023/05/27 04:45:02;;;;;;;6.97;2.67;;;;;;;20.29;38.79;102747.25;5019779;28;20040;-72
2023/05/27 04:47:28;;;;;;;7.43;2.85;;;;;;;20.29;38.70;102741.94;5013391;28;20147;-70
2023/05/27 04:49:54;;;;;;;8.15;2.45;;;;;;;20.29;38.79;102744.59;5013872;28;20117;-71
2023/05/27 04:52:21;;;;;;;7.38;2.63;;;;;;;20.29;38.97;102747.25;5029261;28;20478;-71
2023/05/27 04:54:46;;;;;;;6.07;2.55;;;;;;;20.20;39.05;102729.31;5016196;28;20025;-70
2023/05/27 04:57:12;;;;;;;8.60;2.72;;;;;;;20.28;38.89;102736.75;5010699;28;20029;-71
2023/05/27 04:59:59;;;;;;;7.05;2.50;;;;;;;20.27;38.82;102735.06;5012965;28;20036;-71
2023/05/27 05:02:33;;;;;;;6.85;2.88;;;;;;;20.25;38.85;102735.16;5015529;28;21090;-71
2023/05/27 05:04:59;;;;;;;5.88;2.55;;;;;;;20.24;38.82;102728.16;5009177;28;20053;-72
2023/05/27 05:07:24;;;;;;;5.32;2.30;;;;;;;20.24;38.96;102725.50;5009803;28;20040;-70
2023/05/27 05:09:49;;;;;;;8.18;2.78;;;;;;;20.26;38.98;102731.53;5016425;28;20033;-71
2023/05/27 05:12:15;;;;;;;5.65;2.60;;;;;;;20.25;38.95;102731.63;5013070;28;20481;-71
2023/05/27 05:14:40;;;;;;;7.53;2.70;;;;;;;20.22;38.98;102729.19;5023114;28;20030;-71
2023/05/27 05:17:05;;;;;;;5.57;2.30;;;;;;;20.24;38.71;102736.09;5021473;28;20045;-71
2023/05/27 05:19:30;;;;;;;6.67;2.70;;;;;;;20.26;38.88;102742.13;5006225;28;20267;-70
2023/05/27 05:21:56;;;;;;;5.70;2.30;;;;;;;20.22;39.06;102732.69;5016225;28;21118;-71
2023/05/27 05:24:21;;;;;;;8.68;2.65;;;;;;;20.25;39.02;102735.16;5004152;28;20033;-72
2023/05/27 05:26:46;;;;;;;10.18;2.72;;;;;;;20.21;39.04;102730.97;5004675;28;20128;-72
2023/05/27 05:29:12;;;;;;;7.10;2.53;;;;;;;20.23;39.05;102726.44;5018234;28;20381;-71
2023/05/27 05:31:37;;;;;;;7.80;2.20;;;;;;;20.22;39.19;102729.19;5022898;28;20037;-71
2023/05/27 05:34:02;;;;;;;7.68;2.90;;;;;;;20.18;39.11;102715.28;5005065;28;20034;-71
2023/05/27 05:36:29;;;;;;;6.80;2.53;;;;;;;20.21;39.20;102730.97;5013542;28;20084;-71
2023/05/27 05:38:54;;;;;;;8.43;2.78;;;;;;;20.19;39.35;102724.94;5015456;28;20454;-72
2023/05/27 05:41:19;;;;;;;5.53;2.33;;;;;;;20.17;39.60;102713.59;5004309;28;20030;-72
2023/05/27 05:43:45;;;;;;;7.55;2.50;;;;;;;20.21;39.40;102728.34;5018339;28;20048;-72
2023/05/27 05:46:10;;;;;;;4.60;2.00;;;;;;;20.18;39.42;102717.09;5018615;28;20034;-72
2023/05/27 05:48:35;;;;;;;8.40;2.70;;;;;;;20.18;39.46;102720.56;5003378;28;20309;-72
2023/05/27 05:51:01;;;;;;;6.97;2.35;;;;;;;20.22;39.63;102724.75;5011015;28;20034;-72
2023/05/27 05:53:28;;;;;;;5.70;2.30;;;;;;;20.19;39.49;102713.50;5004562;28;20038;-71
2023/05/27 05:55:53;;;;;;;5.55;2.13;;;;;;;20.21;39.68;102712.44;5015648;28;20546;-72
2023/05/27 05:58:18;;;;;;;7.67;2.87;;;;;;;20.23;39.38;102720.28;5004491;28;20029;-72
2023/05/27 06:00:44;;;;;;;5.32;2.20;;;;;;;20.21;39.35;102707.16;5008080;28;20756;-70
2023/05/27 06:03:09;;;;;;;7.03;2.87;;;;;;;20.26;39.30;102710.38;5010000;28;20048;-71
2023/05/27 06:05:34;;;;;;;6.37;2.30;;;;;;;20.27;39.49;102706.78;5010942;28;20321;-73
2023/05/27 06:08:00;;;;;;;7.20;2.65;;;;;;;20.30;39.56;102703.09;5016581;28;20274;-73
2023/05/27 06:10:25;;;;;;;6.57;2.60;;;;;;;20.33;39.64;102708.22;5014018;28;20033;-72
2023/05/27 06:12:50;;;;;;;7.80;2.60;;;;;;;20.34;39.60;102707.25;5007399;28;20029;-73
2023/05/27 06:15:15;;;;;;;7.80;2.88;;;;;;;20.33;39.79;102704.69;5008993;28;20041;-72
2023/05/27 06:17:41;;;;;;;6.15;2.50;;;;;;;20.34;39.86;102704.59;5018730;28;20033;-73
2023/05/27 06:20:07;;;;;;;8.77;2.70;;;;;;;20.31;39.99;102691.56;5019777;28;20456;-72
2023/05/27 06:22:32;;;;;;;7.55;2.33;;;;;;;20.33;39.85;102692.34;5010431;28;20034;-74
2023/05/27 06:24:57;;;;;;;7.75;2.35;;;;;;;20.33;39.89;102688.81;5008687;28;20053;-72
2023/05/27 06:27:22;;;;;;;6.87;2.43;;;;;;;20.26;39.95;102691.84;5020076;28;20045;-72
2023/05/27 06:29:48;;;;;;;7.35;2.42;;;;;;;20.29;39.71;102682.84;5012504;28;20267;-71
2023/05/27 06:32:13;;;;;;;8.98;2.60;;;;;;;20.34;40.29;102694.00;5014679;28;20094;-71
2023/05/27 06:34:38;;;;;;;7.18;2.40;;;;;;;20.29;39.83;102694.28;5011060;28;20036;-72
2023/05/27 06:37:04;;;;;;;6.28;2.45;;;;;;;20.29;40.17;102696.94;5008112;28;20033;-74
2023/05/27 06:39:29;;;;;;;6.30;2.72;;;;;;;20.30;40.26;102692.53;5010488;28;20038;-71
2023/05/27 06:41:54;;;;;;;7.75;2.83;;;;;;;20.35;40.12;102697.53;5003385;28;20041;-72
2023/05/27 06:44:20;;;;;;;8.93;2.73;;;;;;;20.31;40.17;102680.97;5008099;28;20120;-73
2023/05/27 06:46:45;;;;;;;6.50;2.50;;;;;;;20.33;40.37;102679.09;5012115;28;20265;-71
2023/05/27 06:49:10;;;;;;;9.07;2.60;;;;;;;20.30;40.21;102685.41;5010199;28;20037;-72
2023/05/27 06:51:36;;;;;;;8.63;3.45;;;;;;;20.35;40.41;102684.28;5013300;28;20271;-71
2023/05/27 06:54:02;;;;;;;8.20;2.78;;;;;;;20.32;40.29;102679.19;5009158;28;20454;-73
2023/05/27 06:56:27;;;;;;;9.13;2.95;;;;;;;20.36;40.80;102686.84;5010985;28;20029;-73
2023/05/27 06:58:52;;;;;;;7.73;2.87;;;;;;;20.37;40.50;102685.88;5001769;28;20121;-69
2023/05/27 07:01:18;;;;;;;6.70;2.38;;;;;;;20.39;40.65;102683.97;5001773;28;20632;-68
2023/05/27 07:03:43;;;;;;;9.48;2.80;;;;;;;20.37;40.44;102677.09;5001344;28;20386;-72
2023/05/27 07:06:08;;;;;;;7.18;2.40;;;;;;;20.34;40.73;102682.56;5003947;28;20029;-72
2023/05/27 07:08:34;;;;;;;8.18;3.00;;;;;;;20.35;40.85;102679.00;5018238;28;20063;-69
2023/05/27 07:10:59;;;;;;;8.35;2.60;;;;;;;20.36;40.32;102678.03;5013913;28;20044;-67
2023/05/27 07:13:24;;;;;;;7.60;3.35;;;;;;;20.41;40.51;102674.16;5021230;28;20044;-69
2023/05/27 07:15:50;;;;;;;8.65;2.90;;;;;;;20.41;40.74;102678.59;5005280;28;20140;-68
2023/05/27 07:18:16;;;;;;;9.18;2.70;;;;;;;20.44;40.82;102679.28;5013914;28;20029;-68
2023/05/27 07:20:41;;;;;;;7.57;2.58;;;;;;;20.45;40.59;102672.16;5006367;28;20397;-70
2023/05/27 07:23:07;;;;;;;8.88;2.67;;;;;;;20.45;40.52;102680.13;5017910;28;20032;-69
2023/05/27 07:25:32;;;;;;;7.03;2.90;;;;;;;20.46;40.76;102677.38;5020993;28;20091;-68
2023/05/27 07:27:57;;;;;;;7.43;2.50;;;;;;;20.45;40.71;102675.66;5020674;28;20812;-70
2023/05/27 07:30:23;;;;;;;8.67;2.87;;;;;;;20.45;40.65;102680.13;5013416;28;20080;-72
2023/05/27 07:32:48;;;;;;;7.85;3.28;;;;;;;20.42;40.68;102672.34;5003856;28;20297;-70
2023/05/27 07:35:13;;;;;;;8.07;2.55;;;;;;;20.36;41.00;102670.09;5008476;28;20465;-69
2023/05/27 07:37:38;;;;;;;9.32;2.47;;;;;;;20.39;40.63;102665.44;5015294;28;20417;-72
2023/05/27 07:40:05;;;;;;;8.98;2.95;;;;;;;20.36;40.83;102675.38;5005462;28;20045;-73
2023/05/27 07:42:30;;;;;;;8.63;2.92;;;;;;;20.38;41.00;102666.41;5013042;28;20117;-72
2023/05/27 07:44:55;;;;;;;8.75;2.78;;;;;;;20.37;41.06;102663.84;5011444;28;20129;-74
2023/05/27 07:47:21;;;;;;;7.75;2.65;;;;;;;20.40;41.23;102664.50;5002226;28;20032;-71
2023/05/27 07:49:46;;;;;;;8.07;2.60;;;;;;;20.34;41.78;102664.03;5010312;28;20458;-70
2023/05/27 07:52:11;;;;;;;9.80;2.80;;;;;;;20.28;41.38;102652.91;5018221;28;20037;-70
2023/05/27 07:54:36;;;;;;;10.17;2.80;;;;;;;20.29;41.70;102648.44;5018130;28;20473;-71
2023/05/27 07:57:02;;;;;;;8.70;2.85;;;;;;;20.32;41.67;102650.06;5013022;28;20306;-70
2023/05/27 07:59:29;;;;;;;7.95;2.28;;;;;;;20.35;41.59;102639.28;5006221;28;20116;-70
2023/05/27 08:01:54;;;;;;;11.50;2.40;;;;;;;20.40;41.63;102643.31;5008159;28;20116;-69
2023/05/27 08:04:19;;;;;;;7.77;2.80;;;;;;;20.39;41.91;102628.38;5018965;28;21046;-69
2023/05/27 08:06:45;;;;;;;8.15;2.65;;;;;;;20.45;41.92;102645.69;5014114;28;20259;-70
2023/05/27 08:09:10;;;;;;;10.32;2.80;;;;;;;20.43;42.07;102640.47;5009113;28;20422;-70
2023/05/27 08:11:35;;;;;;;7.57;2.60;;;;;;;20.48;42.05;102637.56;5016633;28;20041;-70
2023/05/27 08:14:00;;;;;;;8.50;2.92;;;;;;;20.48;42.09;102640.19;5018342;28;20523;-69
2023/05/27 08:16:26;;;;;;;8.57;2.67;;;;;;;20.51;42.05;102631.22;5010645;28;20454;-69
2023/05/27 08:18:51;;;;;;;7.63;2.58;;;;;;;20.51;42.04;102621.47;5015834;28;20044;-70
2023/05/27 08:21:16;;;;;;;10.55;2.60;;;;;;;20.54;41.85;102617.78;5003313;28;20032;-69
2023/05/27 08:23:42;;;;;;;10.40;2.90;;;;;;;20.53;42.06;102616.91;5019234;28;20046;-71
2023/05/27 08:26:07;;;;;;;7.97;2.75;;;;;;;20.56;42.02;102615.88;5003988;28;20034;-71
2023/05/27 08:28:36;;;;;;;7.35;2.80;;;;;;;20.57;42.01;102615.78;5020831;28;20527;-70
2023/05/27 08:31:04;;;;;;;7.80;2.83;;;;;;;20.59;41.88;102607.75;5012001;28;20042;-71
2023/05/27 08:33:30;;;;;;;7.28;2.80;;;;;;;20.62;42.00;102603.09;5005675;28;20033;-70
2023/05/27 08:35:56;;;;;;;7.57;2.63;;;;;;;20.61;41.87;102596.06;5022457;28;20044;-72
2023/05/27 08:38:21;;;;;;;7.53;2.50;;;;;;;20.61;41.95;102588.13;5012439;28;20494;-67
2023/05/27 08:40:47;;;;;;;9.63;3.38;;;;;;;20.60;42.02;102588.22;5016889;28;20052;-68
2023/05/27 08:43:13;;;;;;;7.63;2.75;;;;;;;20.59;41.94;102583.91;5004486;28;20042;-69
2023/05/27 08:45:40;;;;;;;8.38;2.35;;;;;;;20.65;41.81;102581.72;5003766;28;20030;-72
2023/05/27 08:48:08;;;;;;;7.30;2.67;;;;;;;20.68;42.11;102577.16;5006379;28;20470;-70
2023/05/27 08:50:34;;;;;;;6.80;2.53;;;;;;;20.74;41.70;102582.91;5018019;28;20033;-69
2023/05/27 08:53:00;;;;;;;9.10;3.70;;;;;;;20.73;41.75;102575.06;5012053;28;20034;-69
2023/05/27 08:55:27;;;;;;;6.80;2.38;;;;;;;20.75;41.83;102581.13;5013553;28;20034;-71
2023/05/27 08:57:57;;;;;;;6.88;2.53;;;;;;;20.74;42.00;102569.66;5019825;28;20041;-73
2023/05/27 09:00:23;;;;;;;7.03;2.55;;;;;;;20.75;41.98;102575.84;4996415;28;20500;-72
2023/05/27 09:02:49;;;;;;;6.22;2.25;;;;;;;20.76;42.04;102564.25;5017703;28;20366;-69
2023/05/27 09:05:16;;;;;;;9.40;2.50;;;;;;;20.79;42.12;102566.72;5011715;28;20072;-71
2023/05/27 09:07:41;;;;;;;8.40;3.05;;;;;;;20.80;42.07;102566.63;5009816;28;20052;-72
2023/05/27 09:10:07;;;;;;;12.65;2.45;;;;;;;20.79;42.24;102570.25;5018138;28;20469;-71
2023/05/27 09:12:34;;;;;;;10.88;3.00;;;;;;;20.81;42.11;102559.53;5010951;28;20092;-70
2023/05/27 09:14:59;;;;;;;8.48;2.95;;;;;;;20.82;42.22;102555.91;5015670;28;20036;-70
2023/05/27 09:17:25;;;;;;;7.90;2.50;;;;;;;20.83;42.43;102547.03;5005363;28;20034;-70
2023/05/27 09:19:51;;;;;;;6.40;2.58;;;;;;;20.87;42.21;102556.50;5010046;28;20379;-69
2023/05/27 09:22:20;;;;;;;8.40;2.88;;;;;;;20.85;42.12;102553.06;5001217;28;20033;-69
2023/05/27 09:24:46;;;;;;;6.68;2.40;;;;;;;20.89;42.09;102551.94;5011925;28;20485;-68
2023/05/27 09:27:12;;;;;;;9.85;2.67;;;;;;;20.90;42.21;102548.31;5011627;28;20036;-68
2023/05/27 09:29:40;;;;;;;8.40;3.10;;;;;;;20.88;41.98;102544.09;5010996;28;20048;-69
2023/05/27 09:32:07;;;;;;;7.88;2.80;;;;;;;20.90;42.17;102543.00;5006715;28;21002;-67
2023/05/27 09:34:38;;;;;;;8.20;2.88;;;;;;;20.90;42.04;102532.41;5009986;28;20121;-69
2023/05/27 09:37:04;;;;;;;6.93;2.80;;;;;;;20.93;42.07;102528.72;5007092;28;20391;-68
2023/05/27 09:39:29;;;;;;;8.68;2.85;;;;;;;20.92;42.16;102525.22;5005187;28;20455;-68
2023/05/27 09:41:56;;;;;;;6.85;2.67;;;;;;;20.97;42.24;102528.41;5010663;28;20029;-68
2023/05/27 09:44:27;;;;;;;7.00;2.67;;;;;;;20.94;42.33;102518.00;5017669;28;20068;-68
2023/05/27 09:46:54;;;;;;;7.10;2.65;;;;;;;20.97;42.20;102528.41;5008107;28;20049;-70
2023/05/27 09:49:21;;;;;;;7.60;2.72;;;;;;;20.96;42.45;102518.75;5010142;28;20079;-69
2023/05/27 09:51:47;;;;;;;8.07;2.88;;;;;;;21.00;42.05;102522.06;5015186;28;20064;-69
2023/05/27 09:54:19;;;;;;;7.57;2.28;;;;;;;21.00;41.94;102511.47;5008365;28;20033;-70
2023/05/27 09:56:45;;;;;;;7.10;2.40;;;;;;;21.01;41.95;102510.50;5004792;28;20056;-69
2023/05/27 09:59:11;;;;;;;7.40;2.72;;;;;;;21.02;42.22;102509.56;5005946;28;20049;-69
2023/05/27 10:01:38;;;;;;;9.93;2.60;;;;;;;21.01;42.20;102507.84;5011964;28;20061;-69
2023/05/27 10:04:04;;;;;;;8.75;2.72;;;;;;;20.97;42.33;102501.06;5015763;28;20042;-68
2023/05/27 10:06:32;;;;;;;8.32;2.22;;;;;;;21.02;42.16;102507.75;5009028;28;20046;-69
2023/05/27 10:08:57;;;;;;;11.70;2.78;;;;;;;21.02;42.18;102501.59;5007499;28;20060;-68
2023/05/27 10:11:23;;;;;;;6.25;2.47;;;;;;;21.05;42.23;102496.09;5011780;28;20371;-67
2023/05/27 10:13:49;;;;;;;8.48;2.72;;;;;;;21.06;42.10;102495.16;5010340;28;20493;-68
2023/05/27 10:16:22;;;;;;;8.18;3.00;;;;;;;21.08;42.10;102498.53;5003854;28;20058;-70
2023/05/27 10:18:52;;;;;;;8.32;2.40;;;;;;;21.10;41.96;102490.47;5003648;28;20065;-68
2023/05/27 10:21:20;;;;;;;8.93;2.72;;;;;;;21.09;42.01;102492.25;5008282;28;20203;-68
2023/05/27 10:23:55;;;;;;;7.78;2.67;;;;;;;21.06;42.01;102489.84;5013286;28;20048;-68
2023/05/27 10:26:35;;;;;;;5.47;2.35;;;;;;;21.10;42.01;102499.28;5012792;28;20029;-71
2023/05/27 10:29:12;;;;;;;7.60;2.50;;;;;;;21.12;41.84;102485.91;5016247;28;20087;-70
2023/05/27 10:31:49;;;;;;;7.22;2.70;;;;;;;21.12;41.84;102476.16;5005163;28;20389;-70
2023/05/27 10:34:15;;;;;;;8.43;2.40;;;;;;;21.16;41.83;102484.75;5012891;28;20069;-72
2023/05/27 10:36:40;;;;;;;10.35;2.85;;;;;;;21.10;42.13;102464.81;5010093;28;20076;-69
2023/05/27 10:39:16;;;;;;;9.20;3.25;;;;;;;21.07;42.06;102472.97;5014802;28;20442;-70
2023/05/27 10:41:50;;;;;;;7.68;2.63;;;;;;;21.04;42.37;102473.19;5011318;28;20073;-71
2023/05/27 10:44:29;;;;;;;11.77;2.50;;;;;;;21.02;42.48;102475.94;5011271;28;20092;-70
2023/05/27 10:47:28;;;;;;;8.75;2.30;;;;;;;20.97;42.55;102470.09;5012395;28;20396;-69
2023/05/27 10:49:57;;;;;;;7.22;2.50;;;;;;;20.94;42.71;102472.13;4996346;28;20049;-70
2023/05/27 10:52:26;;;;;;;7.20;2.75;;;;;;;20.94;42.48;102469.47;5013353;28;20536;-69
2023/05/27 10:54:53;;;;;;;8.43;2.42;;;;;;;20.94;42.66;102458.88;5009718;28;21172;-72
2023/05/27 10:57:21;;;;;;;9.18;2.70;;;;;;;20.94;42.24;102448.28;5010903;28;20029;-68
2023/05/27 10:59:55;;;;;;;10.68;2.80;;;;;;;21.00;42.72;102458.47;5012343;28;20065;-67
2023/05/27 11:02:20;;;;;;;;;;;;;;;21.06;42.67;102441.25;5004638;28;20038;-68
2023/05/27 11:04:48;;;;;;;8.55;2.40;;;;;;;21.06;42.75;102446.56;5012973;28;19913;-67
2023/05/27 11:07:18;;;;;;;6.22;2.40;;;;;;;20.97;42.58;102430.34;5012205;28;20484;-69
2023/05/27 11:09:51;;;;;;;7.72;2.70;;;;;;;21.06;42.68;102436.84;5009730;28;20071;-68
2023/05/27 11:12:18;;;;;;;7.53;2.47;;;;;;;21.08;42.74;102434.03;5011054;28;20108;-66
2023/05/27 11:14:44;;;;;;;11.40;2.55;;;;;;;21.02;42.97;102420.28;5012964;28;20037;-68
2023/05/27 11:17:11;;;;;;;7.78;2.50;;;;;;;21.05;42.72;102413.09;5006944;28;20045;-70
2023/05/27 11:19:39;;;;;;;8.23;2.53;;;;;;;21.05;42.65;102421.88;5010448;28;20048;-67
2023/05/27 11:22:06;;;;;;;6.90;2.60;;;;;;;21.08;42.49;102421.66;5008971;28;20587;-67